CheckWX is a tool to help pilots better visualize weather data.  It is not intended as a substitute for an official pre-flight weather briefing.

07:28:56 UTC

KAPN TAF
Alpena County Regional Airport
Alpena, Michigan, USA
KAPN 210640Z 2107/2206 00000KT 1/4SM FG VV002 TEMPO 2107/2111 5SM BR BKN005 FM211100 10007KT 6SM BR BKN007 WS010/14030KT FM211400 11010KT P6SM OVC025 WS010/14030KT FM211700 12013G27KT P6SM OVC045 FM212200 13017G34KT 6SM -SHRA OVC040 WS020/14055KT FM220100 13019G32KT 5SM -SHRA OVC017 WS020/15055KT FM220500 16011G20KT 6SM -SHRA BKN040

Oct-21@
07:00 UTC

Oct-21 @ 07:00 UTC

Oct-21@
11:00 UTC

Oct-21 @ 11:00 UTC

KAPN 210640Z 2107/2206 00000KT 1/4SM FG VV002
Conditions
Fog
Cloud Levels
  • Vertical visibility at 200' AGL

Oct-21@
07:00 UTC

Oct-21 @ 07:00 UTC

Oct-21@
11:00 UTC

Oct-21 @ 11:00 UTC

TEMPO 2107/2111 5SM BR BKN005

Temporary

Temporary Changes expected for less than half the time period

Conditions
Mist
Cloud Levels
  • Broken at 500' AGL

Oct-21@
11:00 UTC

Oct-21 @ 11:00 UTC

Oct-21@
14:00 UTC

Oct-21 @ 14:00 UTC

FM211100 10007KT 6SM BR BKN007 WS010/14030KT

From

From Standard forecast or significant change

Wind
  • 100° at 7 KTS
Conditions
Mist
Cloud Levels
  • Broken at 700' AGL

Oct-21@
14:00 UTC

Oct-21 @ 14:00 UTC

Oct-21@
17:00 UTC

Oct-21 @ 17:00 UTC

FM211400 11010KT P6SM OVC025 WS010/14030KT

From

From Standard forecast or significant change

Wind
  • 110° at 10 KTS
Cloud Levels
  • Overcast at 2,500' AGL

Oct-21@
17:00 UTC

Oct-21 @ 17:00 UTC

Oct-21@
22:00 UTC

Oct-21 @ 22:00 UTC

FM211700 12013G27KT P6SM OVC045

From

From Standard forecast or significant change

Wind
  • 120° at 13 KTS
  • {Gusting to 27 KTS
Cloud Levels
  • Overcast at 4,500' AGL

Oct-21@
22:00 UTC

Oct-21 @ 22:00 UTC

Oct-22@
01:00 UTC

Oct-22 @ 01:00 UTC

FM212200 13017G34KT 6SM -SHRA OVC040 WS020/14055KT

From

From Standard forecast or significant change

Wind
  • 130° at 17 KTS
  • {Gusting to 34 KTS
Conditions
Light Rain
Cloud Levels
  • Overcast at 4,000' AGL

Oct-22@
01:00 UTC

Oct-22 @ 01:00 UTC

Oct-22@
05:00 UTC

Oct-22 @ 05:00 UTC

FM220100 13019G32KT 5SM -SHRA OVC017 WS020/15055KT

From

From Standard forecast or significant change

Wind
  • 130° at 19 KTS
  • {Gusting to 32 KTS
Conditions
Light Rain
Cloud Levels
  • Overcast at 1,700' AGL

Oct-22@
05:00 UTC

Oct-22 @ 05:00 UTC

Oct-22@
06:00 UTC

Oct-22 @ 06:00 UTC

FM220500 16011G20KT 6SM -SHRA BKN040

From

From Standard forecast or significant change

Wind
  • 160° at 11 KTS
  • {Gusting to 20 KTS
Conditions
Light Rain
Cloud Levels
  • Broken at 4,000' AGL